sensor_id;sensor_type;location;lat;lon;timestamp;P1;durP1;ratioP1;P2;durP2;ratioP2
58412;SDS011;44209;52.952;6.790;2022-12-18T00:01:29;119.70;;;45.23;;
58412;SDS011;44209;52.952;6.790;2022-12-18T00:04:00;116.97;;;45.33;;
58412;SDS011;44209;52.952;6.790;2022-12-18T00:06:31;107.00;;;43.23;;
58412;SDS011;44209;52.952;6.790;2022-12-18T00:08:58;121.97;;;46.63;;
58412;SDS011;44209;52.952;6.790;2022-12-18T00:11:25;121.13;;;45.03;;
58412;SDS011;44209;52.952;6.790;2022-12-18T00:13:54;121.40;;;46.47;;
58412;SDS011;44209;52.952;6.790;2022-12-18T00:16:22;115.30;;;44.60;;
58412;SDS011;44209;52.952;6.790;2022-12-18T00:18:50;128.17;;;48.87;;
58412;SDS011;44209;52.952;6.790;2022-12-18T00:21:17;116.93;;;45.63;;
58412;SDS011;44209;52.952;6.790;2022-12-18T00:23:43;124.23;;;46.97;;
58412;SDS011;44209;52.952;6.790;2022-12-18T00:26:11;131.33;;;48.90;;
58412;SDS011;44209;52.952;6.790;2022-12-18T00:31:09;128.97;;;48.50;;
58412;SDS011;44209;52.952;6.790;2022-12-18T00:33:36;136.10;;;48.70;;
58412;SDS011;44209;52.952;6.790;2022-12-18T00:36:04;142.60;;;50.83;;
58412;SDS011;44209;52.952;6.790;2022-12-18T00:38:32;135.87;;;50.37;;
58412;SDS011;44209;52.952;6.790;2022-12-18T00:40:58;135.10;;;51.00;;
58412;SDS011;44209;52.952;6.790;2022-12-18T00:43:24;135.73;;;50.93;;
58412;SDS011;44209;52.952;6.790;2022-12-18T00:45:50;155.50;;;54.57;;
58412;SDS011;44209;52.952;6.790;2022-12-18T00:48:16;130.60;;;49.27;;
58412;SDS011;44209;52.952;6.790;2022-12-18T00:50:42;142.00;;;50.63;;
58412;SDS011;44209;52.952;6.790;2022-12-18T00:53:11;130.67;;;48.93;;
58412;SDS011;44209;52.952;6.790;2022-12-18T00:55:37;144.13;;;50.17;;
58412;SDS011;44209;52.952;6.790;2022-12-18T00:58:04;136.40;;;52.57;;
58412;SDS011;44209;52.952;6.790;2022-12-18T01:00:30;130.70;;;50.00;;
58412;SDS011;44209;52.952;6.790;2022-12-18T01:02:56;134.73;;;50.23;;
58412;SDS011;44209;52.952;6.790;2022-12-18T01:05:22;122.60;;;50.00;;
58412;SDS011;44209;52.952;6.790;2022-12-18T01:07:47;124.83;;;48.83;;
58412;SDS011;44209;52.952;6.790;2022-12-18T01:10:13;121.70;;;47.13;;
58412;SDS011;44209;52.952;6.790;2022-12-18T01:12:39;114.30;;;47.77;;
58412;SDS011;44209;52.952;6.790;2022-12-18T01:15:05;114.97;;;47.37;;
58412;SDS011;44209;52.952;6.790;2022-12-18T01:17:32;123.53;;;48.87;;
58412;SDS011;44209;52.952;6.790;2022-12-18T01:19:58;113.80;;;48.47;;
58412;SDS011;44209;52.952;6.790;2022-12-18T01:22:24;115.27;;;47.03;;
58412;SDS011;44209;52.952;6.790;2022-12-18T01:24:49;118.63;;;48.53;;
58412;SDS011;44209;52.952;6.790;2022-12-18T01:27:15;119.57;;;50.67;;
58412;SDS011;44209;52.952;6.790;2022-12-18T01:29:41;112.20;;;46.53;;
58412;SDS011;44209;52.952;6.790;2022-12-18T01:32:07;109.50;;;48.63;;
58412;SDS011;44209;52.952;6.790;2022-12-18T01:34:35;113.77;;;47.70;;
58412;SDS011;44209;52.952;6.790;2022-12-18T01:37:02;114.03;;;47.37;;
58412;SDS011;44209;52.952;6.790;2022-12-18T01:39:28;122.23;;;49.70;;
58412;SDS011;44209;52.952;6.790;2022-12-18T01:41:54;121.83;;;50.07;;
58412;SDS011;44209;52.952;6.790;2022-12-18T01:50:05;128.80;;;51.55;;
58412;SDS011;44209;52.952;6.790;2022-12-18T01:52:37;132.50;;;53.37;;
58412;SDS011;44209;52.952;6.790;2022-12-18T01:55:04;118.60;;;50.73;;
58412;SDS011;44209;52.952;6.790;2022-12-18T01:57:31;120.37;;;50.53;;
58412;SDS011;44209;52.952;6.790;2022-12-18T02:00:00;122.43;;;49.50;;
58412;SDS011;44209;52.952;6.790;2022-12-18T02:02:30;117.53;;;47.63;;
58412;SDS011;44209;52.952;6.790;2022-12-18T02:04:56;117.30;;;51.10;;
58412;SDS011;44209;52.952;6.790;2022-12-18T02:10:07;123.37;;;50.93;;
58412;SDS011;44209;52.952;6.790;2022-12-18T02:12:56;118.67;;;49.10;;
58412;SDS011;44209;52.952;6.790;2022-12-18T02:15:29;131.17;;;50.17;;
58412;SDS011;44209;52.952;6.790;2022-12-18T02:18:06;127.37;;;50.10;;
58412;SDS011;44209;52.952;6.790;2022-12-18T02:20:40;122.23;;;49.70;;
58412;SDS011;44209;52.952;6.790;2022-12-18T02:28:54;116.83;;;49.63;;
58412;SDS011;44209;52.952;6.790;2022-12-18T02:31:27;121.37;;;49.07;;
58412;SDS011;44209;52.952;6.790;2022-12-18T02:33:56;128.00;;;50.53;;
58412;SDS011;44209;52.952;6.790;2022-12-18T02:36:25;130.17;;;51.23;;
58412;SDS011;44209;52.952;6.790;2022-12-18T02:38:53;121.53;;;49.17;;
58412;SDS011;44209;52.952;6.790;2022-12-18T02:41:24;106.83;;;47.90;;
58412;SDS011;44209;52.952;6.790;2022-12-18T02:43:57;120.83;;;48.70;;
58412;SDS011;44209;52.952;6.790;2022-12-18T02:51:48;122.83;;;50.23;;
58412;SDS011;44209;52.952;6.790;2022-12-18T02:56:54;113.90;;;49.03;;
58412;SDS011;44209;52.952;6.790;2022-12-18T02:59:30;113.77;;;47.93;;
58412;SDS011;44209;52.952;6.790;2022-12-18T03:07:07;114.40;;;46.87;;
58412;SDS011;44209;52.952;6.790;2022-12-18T03:09:41;110.38;;;45.92;;
58412;SDS011;44209;52.952;6.790;2022-12-18T03:12:20;110.73;;;48.37;;
58412;SDS011;44209;52.952;6.790;2022-12-18T03:15:03;107.27;;;46.23;;
58412;SDS011;44209;52.952;6.790;2022-12-18T03:17:44;104.97;;;45.30;;
58412;SDS011;44209;52.952;6.790;2022-12-18T03:20:15;107.55;;;45.35;;
58412;SDS011;44209;52.952;6.790;2022-12-18T03:22:45;103.47;;;45.50;;
58412;SDS011;44209;52.952;6.790;2022-12-18T03:25:14;94.57;;;43.23;;
58412;SDS011;44209;52.952;6.790;2022-12-18T03:27:45;105.10;;;47.87;;
58412;SDS011;44209;52.952;6.790;2022-12-18T03:30:13;107.13;;;44.53;;
58412;SDS011;44209;52.952;6.790;2022-12-18T03:35:31;92.30;;;41.20;;
58412;SDS011;44209;52.952;6.790;2022-12-18T03:38:01;94.53;;;42.20;;
58412;SDS011;44209;52.952;6.790;2022-12-18T03:40:43;87.60;;;42.10;;
58412;SDS011;44209;52.952;6.790;2022-12-18T03:43:26;83.73;;;40.47;;
58412;SDS011;44209;52.952;6.790;2022-12-18T03:46:01;87.30;;;40.03;;
58412;SDS011;44209;52.952;6.790;2022-12-18T03:48:32;82.20;;;38.30;;
58412;SDS011;44209;52.952;6.790;2022-12-18T03:51:10;79.13;;;37.77;;
58412;SDS011;44209;52.952;6.790;2022-12-18T03:53:58;85.57;;;37.40;;
58412;SDS011;44209;52.952;6.790;2022-12-18T03:56:29;83.67;;;38.20;;
58412;SDS011;44209;52.952;6.790;2022-12-18T03:58:58;74.93;;;37.63;;
58412;SDS011;44209;52.952;6.790;2022-12-18T04:01:31;80.17;;;37.57;;
58412;SDS011;44209;52.952;6.790;2022-12-18T04:04:04;76.77;;;35.70;;
58412;SDS011;44209;52.952;6.790;2022-12-18T04:06:32;73.80;;;34.70;;
58412;SDS011;44209;52.952;6.790;2022-12-18T04:08:58;75.07;;;35.70;;
58412;SDS011;44209;52.952;6.790;2022-12-18T04:11:25;72.47;;;35.80;;
58412;SDS011;44209;52.952;6.790;2022-12-18T04:13:52;79.30;;;37.43;;
58412;SDS011;44209;52.952;6.790;2022-12-18T04:16:22;71.53;;;35.65;;
58412;SDS011;44209;52.952;6.790;2022-12-18T04:18:48;71.13;;;33.83;;
58412;SDS011;44209;52.952;6.790;2022-12-18T04:21:14;78.60;;;34.60;;
58412;SDS011;44209;52.952;6.790;2022-12-18T04:23:39;68.53;;;34.27;;
58412;SDS011;44209;52.952;6.790;2022-12-18T04:26:05;68.23;;;33.77;;
58412;SDS011;44209;52.952;6.790;2022-12-18T04:28:31;69.10;;;33.30;;
58412;SDS011;44209;52.952;6.790;2022-12-18T04:30:56;62.93;;;32.07;;
58412;SDS011;44209;52.952;6.790;2022-12-18T04:33:22;68.73;;;32.50;;
58412;SDS011;44209;52.952;6.790;2022-12-18T04:35:48;63.97;;;33.00;;
58412;SDS011;44209;52.952;6.790;2022-12-18T04:38:14;64.73;;;32.07;;
58412;SDS011;44209;52.952;6.790;2022-12-18T04:40:40;66.50;;;33.37;;
58412;SDS011;44209;52.952;6.790;2022-12-18T04:43:06;67.70;;;32.83;;
58412;SDS011;44209;52.952;6.790;2022-12-18T04:45:32;63.80;;;31.60;;
58412;SDS011;44209;52.952;6.790;2022-12-18T04:47:58;64.97;;;32.17;;
58412;SDS011;44209;52.952;6.790;2022-12-18T04:50:24;65.90;;;32.40;;
58412;SDS011;44209;52.952;6.790;2022-12-18T04:52:50;69.13;;;32.10;;
58412;SDS011;44209;52.952;6.790;2022-12-18T04:55:16;62.07;;;31.33;;
58412;SDS011;44209;52.952;6.790;2022-12-18T04:57:42;60.33;;;31.97;;
58412;SDS011;44209;52.952;6.790;2022-12-18T05:00:07;66.83;;;31.43;;
58412;SDS011;44209;52.952;6.790;2022-12-18T05:02:34;63.67;;;30.13;;
58412;SDS011;44209;52.952;6.790;2022-12-18T05:04:59;64.67;;;30.93;;
58412;SDS011;44209;52.952;6.790;2022-12-18T05:07:25;61.20;;;30.97;;
58412;SDS011;44209;52.952;6.790;2022-12-18T05:09:51;62.53;;;31.57;;
58412;SDS011;44209;52.952;6.790;2022-12-18T05:12:16;61.90;;;30.10;;
58412;SDS011;44209;52.952;6.790;2022-12-18T05:14:42;64.87;;;29.63;;
58412;SDS011;44209;52.952;6.790;2022-12-18T05:17:08;61.37;;;30.17;;
58412;SDS011;44209;52.952;6.790;2022-12-18T05:19:33;61.10;;;29.47;;
58412;SDS011;44209;52.952;6.790;2022-12-18T05:21:59;59.43;;;29.47;;
58412;SDS011;44209;52.952;6.790;2022-12-18T05:24:26;55.57;;;29.70;;
58412;SDS011;44209;52.952;6.790;2022-12-18T05:26:52;56.00;;;29.63;;
58412;SDS011;44209;52.952;6.790;2022-12-18T05:29:18;54.10;;;27.70;;
58412;SDS011;44209;52.952;6.790;2022-12-18T05:31:43;55.20;;;28.30;;
58412;SDS011;44209;52.952;6.790;2022-12-18T05:34:09;53.80;;;28.67;;
58412;SDS011;44209;52.952;6.790;2022-12-18T05:36:35;58.50;;;29.20;;
58412;SDS011;44209;52.952;6.790;2022-12-18T05:39:00;60.23;;;29.73;;
58412;SDS011;44209;52.952;6.790;2022-12-18T05:41:26;58.23;;;29.37;;
58412;SDS011;44209;52.952;6.790;2022-12-18T05:43:52;55.27;;;28.63;;
58412;SDS011;44209;52.952;6.790;2022-12-18T05:46:18;58.07;;;28.60;;
58412;SDS011;44209;52.952;6.790;2022-12-18T05:48:44;57.53;;;29.27;;
58412;SDS011;44209;52.952;6.790;2022-12-18T05:51:11;56.37;;;27.97;;
58412;SDS011;44209;52.952;6.790;2022-12-18T05:53:40;53.93;;;28.83;;
58412;SDS011;44209;52.952;6.790;2022-12-18T05:56:07;57.37;;;28.20;;
58412;SDS011;44209;52.952;6.790;2022-12-18T05:58:34;52.27;;;27.37;;
58412;SDS011;44209;52.952;6.790;2022-12-18T06:01:34;53.93;;;28.87;;
58412;SDS011;44209;52.952;6.790;2022-12-18T06:03:53;53.00;;;26.67;;
58412;SDS011;44209;52.952;6.790;2022-12-18T06:06:20;56.10;;;26.17;;
58412;SDS011;44209;52.952;6.790;2022-12-18T06:08:48;55.80;;;26.43;;
58412;SDS011;44209;52.952;6.790;2022-12-18T06:11:16;55.50;;;28.10;;
58412;SDS011;44209;52.952;6.790;2022-12-18T06:13:43;53.80;;;27.07;;
58412;SDS011;44209;52.952;6.790;2022-12-18T06:16:09;54.60;;;28.00;;
58412;SDS011;44209;52.952;6.790;2022-12-18T06:18:35;55.13;;;28.57;;
58412;SDS011;44209;52.952;6.790;2022-12-18T06:21:01;55.53;;;28.20;;
58412;SDS011;44209;52.952;6.790;2022-12-18T06:23:27;55.63;;;27.97;;
58412;SDS011;44209;52.952;6.790;2022-12-18T06:25:53;53.20;;;27.57;;
58412;SDS011;44209;52.952;6.790;2022-12-18T06:28:19;57.10;;;27.37;;
58412;SDS011;44209;52.952;6.790;2022-12-18T06:30:45;54.30;;;27.63;;
58412;SDS011;44209;52.952;6.790;2022-12-18T06:33:13;55.73;;;27.90;;
58412;SDS011;44209;52.952;6.790;2022-12-18T06:35:39;51.80;;;27.17;;
58412;SDS011;44209;52.952;6.790;2022-12-18T06:38:06;52.13;;;27.47;;
58412;SDS011;44209;52.952;6.790;2022-12-18T06:40:32;52.53;;;27.20;;
58412;SDS011;44209;52.952;6.790;2022-12-18T06:42:57;53.20;;;26.80;;
58412;SDS011;44209;52.952;6.790;2022-12-18T06:45:23;55.93;;;27.50;;
58412;SDS011;44209;52.952;6.790;2022-12-18T06:47:49;52.63;;;26.90;;
58412;SDS011;44209;52.952;6.790;2022-12-18T06:50:15;55.07;;;27.20;;
58412;SDS011;44209;52.952;6.790;2022-12-18T06:52:41;54.17;;;26.80;;
58412;SDS011;44209;52.952;6.790;2022-12-18T06:55:08;51.53;;;27.70;;
58412;SDS011;44209;52.952;6.790;2022-12-18T06:57:36;57.33;;;27.47;;
58412;SDS011;44209;52.952;6.790;2022-12-18T07:00:03;53.83;;;28.50;;
58412;SDS011;44209;52.952;6.790;2022-12-18T07:02:30;57.23;;;26.80;;
58412;SDS011;44209;52.952;6.790;2022-12-18T07:04:56;57.53;;;28.07;;
58412;SDS011;44209;52.952;6.790;2022-12-18T07:07:22;54.50;;;27.63;;
58412;SDS011;44209;52.952;6.790;2022-12-18T07:09:49;52.23;;;27.63;;
58412;SDS011;44209;52.952;6.790;2022-12-18T07:12:15;53.27;;;26.90;;
58412;SDS011;44209;52.952;6.790;2022-12-18T07:14:41;50.40;;;26.53;;
58412;SDS011;44209;52.952;6.790;2022-12-18T07:17:07;51.27;;;27.40;;
58412;SDS011;44209;52.952;6.790;2022-12-18T07:19:33;55.10;;;27.43;;
58412;SDS011;44209;52.952;6.790;2022-12-18T07:21:59;47.00;;;26.13;;
58412;SDS011;44209;52.952;6.790;2022-12-18T07:24:25;44.53;;;24.90;;
58412;SDS011;44209;52.952;6.790;2022-12-18T07:26:51;51.57;;;26.77;;
58412;SDS011;44209;52.952;6.790;2022-12-18T07:29:17;50.20;;;27.00;;
58412;SDS011;44209;52.952;6.790;2022-12-18T07:31:43;49.93;;;26.13;;
58412;SDS011;44209;52.952;6.790;2022-12-18T07:34:12;51.93;;;27.70;;
58412;SDS011;44209;52.952;6.790;2022-12-18T07:36:40;50.27;;;26.57;;
58412;SDS011;44209;52.952;6.790;2022-12-18T07:39:06;50.83;;;28.03;;
58412;SDS011;44209;52.952;6.790;2022-12-18T07:41:31;49.20;;;27.67;;
58412;SDS011;44209;52.952;6.790;2022-12-18T07:43:57;49.93;;;27.70;;
58412;SDS011;44209;52.952;6.790;2022-12-18T07:46:23;44.73;;;26.07;;
58412;SDS011;44209;52.952;6.790;2022-12-18T07:48:49;49.60;;;26.57;;
58412;SDS011;44209;52.952;6.790;2022-12-18T07:51:14;45.00;;;24.93;;
58412;SDS011;44209;52.952;6.790;2022-12-18T07:53:41;50.50;;;26.63;;
58412;SDS011;44209;52.952;6.790;2022-12-18T07:56:10;48.07;;;25.90;;
58412;SDS011;44209;52.952;6.790;2022-12-18T07:58:37;50.47;;;25.60;;
58412;SDS011;44209;52.952;6.790;2022-12-18T08:01:07;47.47;;;25.33;;
58412;SDS011;44209;52.952;6.790;2022-12-18T08:03:34;48.33;;;26.00;;
58412;SDS011;44209;52.952;6.790;2022-12-18T08:06:00;47.50;;;25.53;;
58412;SDS011;44209;52.952;6.790;2022-12-18T08:08:28;46.37;;;25.70;;
58412;SDS011;44209;52.952;6.790;2022-12-18T08:10:54;51.37;;;27.13;;
58412;SDS011;44209;52.952;6.790;2022-12-18T08:13:20;43.83;;;25.53;;
58412;SDS011;44209;52.952;6.790;2022-12-18T08:15:46;46.27;;;24.90;;
58412;SDS011;44209;52.952;6.790;2022-12-18T08:18:20;48.23;;;24.17;;
58412;SDS011;44209;52.952;6.790;2022-12-18T08:20:46;47.90;;;25.03;;
58412;SDS011;44209;52.952;6.790;2022-12-18T08:23:11;42.07;;;24.80;;
58412;SDS011;44209;52.952;6.790;2022-12-18T08:25:37;45.17;;;24.37;;
58412;SDS011;44209;52.952;6.790;2022-12-18T08:28:03;44.13;;;24.37;;
58412;SDS011;44209;52.952;6.790;2022-12-18T08:30:29;41.47;;;23.33;;
58412;SDS011;44209;52.952;6.790;2022-12-18T08:32:54;43.73;;;24.53;;
58412;SDS011;44209;52.952;6.790;2022-12-18T08:35:20;39.70;;;22.53;;
58412;SDS011;44209;52.952;6.790;2022-12-18T08:37:46;41.13;;;23.00;;
58412;SDS011;44209;52.952;6.790;2022-12-18T08:40:12;36.33;;;22.37;;
58412;SDS011;44209;52.952;6.790;2022-12-18T08:42:38;36.10;;;22.87;;
58412;SDS011;44209;52.952;6.790;2022-12-18T08:45:22;38.03;;;22.40;;
58412;SDS011;44209;52.952;6.790;2022-12-18T08:47:49;39.73;;;22.70;;
58412;SDS011;44209;52.952;6.790;2022-12-18T08:50:15;39.03;;;24.33;;
58412;SDS011;44209;52.952;6.790;2022-12-18T08:52:41;38.93;;;24.57;;
58412;SDS011;44209;52.952;6.790;2022-12-18T08:55:07;42.47;;;25.60;;
58412;SDS011;44209;52.952;6.790;2022-12-18T08:57:33;40.17;;;24.27;;
58412;SDS011;44209;52.952;6.790;2022-12-18T08:59:59;42.17;;;23.83;;
58412;SDS011;44209;52.952;6.790;2022-12-18T09:02:25;40.90;;;25.13;;
58412;SDS011;44209;52.952;6.790;2022-12-18T09:04:50;37.17;;;22.97;;
58412;SDS011;44209;52.952;6.790;2022-12-18T09:07:16;41.93;;;22.03;;
58412;SDS011;44209;52.952;6.790;2022-12-18T09:09:42;37.80;;;22.33;;
58412;SDS011;44209;52.952;6.790;2022-12-18T09:12:08;34.20;;;21.60;;
58412;SDS011;44209;52.952;6.790;2022-12-18T09:14:33;34.60;;;20.10;;
58412;SDS011;44209;52.952;6.790;2022-12-18T09:16:59;32.27;;;19.63;;
58412;SDS011;44209;52.952;6.790;2022-12-18T09:19:25;33.13;;;20.07;;
58412;SDS011;44209;52.952;6.790;2022-12-18T09:21:51;34.53;;;19.20;;
58412;SDS011;44209;52.952;6.790;2022-12-18T09:24:16;31.93;;;20.23;;
58412;SDS011;44209;52.952;6.790;2022-12-18T09:26:42;32.70;;;19.50;;
58412;SDS011;44209;52.952;6.790;2022-12-18T09:29:08;31.40;;;18.73;;
58412;SDS011;44209;52.952;6.790;2022-12-18T09:31:35;31.20;;;18.57;;
58412;SDS011;44209;52.952;6.790;2022-12-18T09:34:01;31.37;;;19.00;;
58412;SDS011;44209;52.952;6.790;2022-12-18T09:36:27;30.00;;;19.63;;
58412;SDS011;44209;52.952;6.790;2022-12-18T09:38:53;32.27;;;20.27;;
58412;SDS011;44209;52.952;6.790;2022-12-18T09:41:31;29.27;;;18.07;;
58412;SDS011;44209;52.952;6.790;2022-12-18T09:46:46;26.33;;;17.53;;
58412;SDS011;44209;52.952;6.790;2022-12-18T09:49:34;26.27;;;16.73;;
58412;SDS011;44209;52.952;6.790;2022-12-18T09:52:09;26.25;;;15.90;;
58412;SDS011;44209;52.952;6.790;2022-12-18T09:54:55;27.20;;;16.27;;
58412;SDS011;44209;52.952;6.790;2022-12-18T09:57:28;23.67;;;15.23;;
58412;SDS011;44209;52.952;6.790;2022-12-18T09:59:57;22.70;;;15.33;;
58412;SDS011;44209;52.952;6.790;2022-12-18T10:02:31;20.37;;;14.77;;
58412;SDS011;44209;52.952;6.790;2022-12-18T10:13:21;19.57;;;13.83;;
58412;SDS011;44209;52.952;6.790;2022-12-18T10:16:09;24.73;;;14.07;;
58412;SDS011;44209;52.952;6.790;2022-12-18T10:24:22;20.42;;;12.77;;
58412;SDS011;44209;52.952;6.790;2022-12-18T10:26:49;20.07;;;12.83;;
58412;SDS011;44209;52.952;6.790;2022-12-18T10:29:21;18.55;;;13.48;;
58412;SDS011;44209;52.952;6.790;2022-12-18T10:31:47;19.40;;;13.30;;
58412;SDS011;44209;52.952;6.790;2022-12-18T10:34:13;18.43;;;12.90;;
58412;SDS011;44209;52.952;6.790;2022-12-18T10:36:42;19.83;;;13.10;;
58412;SDS011;44209;52.952;6.790;2022-12-18T10:39:15;19.47;;;12.43;;
58412;SDS011;44209;52.952;6.790;2022-12-18T10:41:43;17.97;;;11.67;;
58412;SDS011;44209;52.952;6.790;2022-12-18T10:44:11;23.27;;;15.33;;
58412;SDS011;44209;52.952;6.790;2022-12-18T10:46:48;22.07;;;15.10;;
58412;SDS011;44209;52.952;6.790;2022-12-18T10:49:23;21.00;;;13.27;;
58412;SDS011;44209;52.952;6.790;2022-12-18T10:52:14;20.03;;;13.63;;
58412;SDS011;44209;52.952;6.790;2022-12-18T10:54:50;23.95;;;14.60;;
58412;SDS011;44209;52.952;6.790;2022-12-18T10:57:31;22.97;;;15.60;;
58412;SDS011;44209;52.952;6.790;2022-12-18T11:02:54;17.05;;;11.93;;
58412;SDS011;44209;52.952;6.790;2022-12-18T11:05:25;16.40;;;11.20;;
58412;SDS011;44209;52.952;6.790;2022-12-18T11:07:59;18.10;;;11.77;;
58412;SDS011;44209;52.952;6.790;2022-12-18T11:13:11;19.73;;;14.50;;
58412;SDS011;44209;52.952;6.790;2022-12-18T11:15:42;18.50;;;13.00;;
58412;SDS011;44209;52.952;6.790;2022-12-18T11:18:15;16.37;;;12.00;;
58412;SDS011;44209;52.952;6.790;2022-12-18T11:23:18;18.13;;;10.37;;
58412;SDS011;44209;52.952;6.790;2022-12-18T11:25:51;15.37;;;10.87;;
58412;SDS011;44209;52.952;6.790;2022-12-18T11:31:09;14.53;;;10.47;;
58412;SDS011;44209;52.952;6.790;2022-12-18T11:36:31;14.77;;;9.80;;
58412;SDS011;44209;52.952;6.790;2022-12-18T11:39:03;14.05;;;10.23;;
58412;SDS011;44209;52.952;6.790;2022-12-18T11:41:48;14.40;;;9.47;;
58412;SDS011;44209;52.952;6.790;2022-12-18T11:44:55;12.60;;;9.00;;
58412;SDS011;44209;52.952;6.790;2022-12-18T11:50:11;13.73;;;9.23;;
58412;SDS011;44209;52.952;6.790;2022-12-18T11:52:43;12.10;;;8.50;;
58412;SDS011;44209;52.952;6.790;2022-12-18T11:58:08;12.67;;;8.40;;
58412;SDS011;44209;52.952;6.790;2022-12-18T12:01:06;12.33;;;8.70;;
58412;SDS011;44209;52.952;6.790;2022-12-18T12:04:24;13.70;;;8.93;;
58412;SDS011;44209;52.952;6.790;2022-12-18T12:09:40;13.73;;;8.87;;
58412;SDS011;44209;52.952;6.790;2022-12-18T12:12:23;13.40;;;8.80;;
58412;SDS011;44209;52.952;6.790;2022-12-18T12:17:31;12.93;;;8.63;;
58412;SDS011;44209;52.952;6.790;2022-12-18T12:25:45;13.27;;;8.73;;
58412;SDS011;44209;52.952;6.790;2022-12-18T12:33:47;13.90;;;9.17;;
58412;SDS011;44209;52.952;6.790;2022-12-18T12:39:17;14.43;;;9.57;;
58412;SDS011;44209;52.952;6.790;2022-12-18T12:41:48;14.67;;;9.37;;
58412;SDS011;44209;52.952;6.790;2022-12-18T12:44:34;12.90;;;9.10;;
58412;SDS011;44209;52.952;6.790;2022-12-18T12:47:18;13.23;;;8.53;;
58412;SDS011;44209;52.952;6.790;2022-12-18T12:49:48;12.80;;;9.00;;
58412;SDS011;44209;52.952;6.790;2022-12-18T12:52:34;11.50;;;7.90;;
58412;SDS011;44209;52.952;6.790;2022-12-18T12:55:05;12.27;;;8.23;;
58412;SDS011;44209;52.952;6.790;2022-12-18T12:57:51;16.60;;;9.70;;
58412;SDS011;44209;52.952;6.790;2022-12-18T13:00:20;13.57;;;8.50;;
58412;SDS011;44209;52.952;6.790;2022-12-18T13:08:31;16.27;;;10.57;;
58412;SDS011;44209;52.952;6.790;2022-12-18T13:11:28;13.18;;;8.50;;
58412;SDS011;44209;52.952;6.790;2022-12-18T13:14:30;12.03;;;8.70;;
58412;SDS011;44209;52.952;6.790;2022-12-18T13:19:41;12.90;;;9.47;;
58412;SDS011;44209;52.952;6.790;2022-12-18T13:22:25;10.97;;;8.23;;
58412;SDS011;44209;52.952;6.790;2022-12-18T13:24:56;14.00;;;9.83;;
58412;SDS011;44209;52.952;6.790;2022-12-18T13:33:30;49.00;;;36.57;;
58412;SDS011;44209;52.952;6.790;2022-12-18T13:35:53;25.20;;;21.00;;
58412;SDS011;44209;52.952;6.790;2022-12-18T13:38:37;22.37;;;18.80;;
58412;SDS011;44209;52.952;6.790;2022-12-18T13:43:43;14.20;;;9.63;;
58412;SDS011;44209;52.952;6.790;2022-12-18T13:46:30;13.87;;;10.83;;
58412;SDS011;44209;52.952;6.790;2022-12-18T13:50:35;40.63;;;29.97;;
58412;SDS011;44209;52.952;6.790;2022-12-18T13:53:01;14.57;;;10.50;;
58412;SDS011;44209;52.952;6.790;2022-12-18T13:55:29;15.77;;;10.67;;
58412;SDS011;44209;52.952;6.790;2022-12-18T13:58:04;14.63;;;10.57;;
58412;SDS011;44209;52.952;6.790;2022-12-18T14:00:31;15.20;;;10.40;;
58412;SDS011;44209;52.952;6.790;2022-12-18T14:02:57;16.60;;;10.83;;
58412;SDS011;44209;52.952;6.790;2022-12-18T14:05:25;19.27;;;11.90;;
58412;SDS011;44209;52.952;6.790;2022-12-18T14:07:53;15.13;;;11.27;;
58412;SDS011;44209;52.952;6.790;2022-12-18T14:10:21;16.90;;;11.83;;
58412;SDS011;44209;52.952;6.790;2022-12-18T14:12:48;17.10;;;11.90;;
58412;SDS011;44209;52.952;6.790;2022-12-18T14:20:19;15.47;;;11.27;;
58412;SDS011;44209;52.952;6.790;2022-12-18T14:22:45;16.63;;;11.60;;
58412;SDS011;44209;52.952;6.790;2022-12-18T14:25:20;18.50;;;11.40;;
58412;SDS011;44209;52.952;6.790;2022-12-18T14:30:32;15.20;;;10.97;;
58412;SDS011;44209;52.952;6.790;2022-12-18T14:33:04;17.27;;;11.97;;
58412;SDS011;44209;52.952;6.790;2022-12-18T14:35:33;17.23;;;12.40;;
58412;SDS011;44209;52.952;6.790;2022-12-18T14:40:41;18.03;;;11.60;;
58412;SDS011;44209;52.952;6.790;2022-12-18T14:43:10;19.57;;;13.83;;
58412;SDS011;44209;52.952;6.790;2022-12-18T14:45:37;22.33;;;13.63;;
58412;SDS011;44209;52.952;6.790;2022-12-18T14:48:07;25.53;;;14.27;;
58412;SDS011;44209;52.952;6.790;2022-12-18T14:50:38;19.83;;;13.37;;
58412;SDS011;44209;52.952;6.790;2022-12-18T14:53:04;20.53;;;14.73;;
58412;SDS011;44209;52.952;6.790;2022-12-18T14:55:30;19.37;;;13.37;;
58412;SDS011;44209;52.952;6.790;2022-12-18T14:57:56;46.57;;;23.33;;
58412;SDS011;44209;52.952;6.790;2022-12-18T15:00:23;69.70;;;36.67;;
58412;SDS011;44209;52.952;6.790;2022-12-18T15:02:52;54.33;;;28.27;;
58412;SDS011;44209;52.952;6.790;2022-12-18T15:05:21;46.17;;;25.70;;
58412;SDS011;44209;52.952;6.790;2022-12-18T15:07:50;47.67;;;28.40;;
58412;SDS011;44209;52.952;6.790;2022-12-18T15:12:46;51.17;;;31.40;;
58412;SDS011;44209;52.952;6.790;2022-12-18T15:23:22;30.63;;;18.93;;
58412;SDS011;44209;52.952;6.790;2022-12-18T15:26:06;23.33;;;16.00;;
58412;SDS011;44209;52.952;6.790;2022-12-18T15:28:43;23.33;;;15.80;;
58412;SDS011;44209;52.952;6.790;2022-12-18T15:36:22;19.73;;;13.53;;
58412;SDS011;44209;52.952;6.790;2022-12-18T15:38:49;19.90;;;13.73;;
58412;SDS011;44209;52.952;6.790;2022-12-18T15:41:17;22.00;;;13.90;;
58412;SDS011;44209;52.952;6.790;2022-12-18T15:43:44;20.30;;;14.03;;
58412;SDS011;44209;52.952;6.790;2022-12-18T15:46:12;19.37;;;13.57;;
58412;SDS011;44209;52.952;6.790;2022-12-18T15:48:52;21.03;;;13.43;;
58412;SDS011;44209;52.952;6.790;2022-12-18T15:51:21;19.73;;;13.60;;
58412;SDS011;44209;52.952;6.790;2022-12-18T15:53:58;16.97;;;12.53;;
58412;SDS011;44209;52.952;6.790;2022-12-18T15:56:26;21.03;;;13.70;;
58412;SDS011;44209;52.952;6.790;2022-12-18T15:59:11;20.47;;;13.10;;
58412;SDS011;44209;52.952;6.790;2022-12-18T16:01:39;17.37;;;12.83;;
58412;SDS011;44209;52.952;6.790;2022-12-18T16:04:05;42.73;;;23.90;;
58412;SDS011;44209;52.952;6.790;2022-12-18T16:06:31;61.67;;;31.10;;
58412;SDS011;44209;52.952;6.790;2022-12-18T16:08:57;45.10;;;27.23;;
58412;SDS011;44209;52.952;6.790;2022-12-18T16:11:24;48.90;;;29.77;;
58412;SDS011;44209;52.952;6.790;2022-12-18T16:14:05;42.50;;;26.27;;
58412;SDS011;44209;52.952;6.790;2022-12-18T16:16:52;40.67;;;27.67;;
58412;SDS011;44209;52.952;6.790;2022-12-18T16:19:22;33.83;;;24.07;;
58412;SDS011;44209;52.952;6.790;2022-12-18T16:21:49;28.43;;;19.93;;
58412;SDS011;44209;52.952;6.790;2022-12-18T16:24:20;25.57;;;18.57;;
58412;SDS011;44209;52.952;6.790;2022-12-18T16:26:48;27.13;;;18.27;;
58412;SDS011;44209;52.952;6.790;2022-12-18T16:29:16;27.47;;;18.07;;
58412;SDS011;44209;52.952;6.790;2022-12-18T16:31:42;22.43;;;15.43;;
58412;SDS011;44209;52.952;6.790;2022-12-18T16:34:24;21.77;;;13.60;;
58412;SDS011;44209;52.952;6.790;2022-12-18T16:36:58;19.60;;;14.33;;
58412;SDS011;44209;52.952;6.790;2022-12-18T16:39:25;21.17;;;15.33;;
58412;SDS011;44209;52.952;6.790;2022-12-18T16:41:51;21.27;;;14.80;;
58412;SDS011;44209;52.952;6.790;2022-12-18T16:44:18;18.60;;;13.03;;
58412;SDS011;44209;52.952;6.790;2022-12-18T16:46:43;20.20;;;13.77;;
58412;SDS011;44209;52.952;6.790;2022-12-18T16:49:12;20.47;;;13.27;;